sensor_id;sensor_type;location;lat;lon;timestamp;temperature;humidity
24632;DHT22;59977;48.782;9.190;2022-08-02T00:00:44;21.70;99.90
24632;DHT22;59977;48.782;9.190;2022-08-02T00:03:10;21.80;99.90
24632;DHT22;59977;48.782;9.190;2022-08-02T00:05:35;21.90;99.90
24632;DHT22;59977;48.782;9.190;2022-08-02T00:08:01;21.80;99.90
24632;DHT22;59977;48.782;9.190;2022-08-02T00:10:27;21.80;99.90
24632;DHT22;59977;48.782;9.190;2022-08-02T00:12:53;21.80;99.90
24632;DHT22;59977;48.782;9.190;2022-08-02T00:15:18;22.00;99.90
24632;DHT22;59977;48.782;9.190;2022-08-02T00:17:44;22.10;99.90
24632;DHT22;59977;48.782;9.190;2022-08-02T00:20:10;22.10;99.90
24632;DHT22;59977;48.782;9.190;2022-08-02T00:22:36;21.90;99.90
24632;DHT22;59977;48.782;9.190;2022-08-02T00:25:03;21.80;99.90
24632;DHT22;59977;48.782;9.190;2022-08-02T00:27:29;21.70;99.90
24632;DHT22;59977;48.782;9.190;2022-08-02T00:29:55;21.70;99.90
24632;DHT22;59977;48.782;9.190;2022-08-02T00:32:23;21.60;99.90
24632;DHT22;59977;48.782;9.190;2022-08-02T00:34:49;21.50;99.90
24632;DHT22;59977;48.782;9.190;2022-08-02T00:37:15;21.50;99.90
24632;DHT22;59977;48.782;9.190;2022-08-02T00:39:41;21.40;99.90
24632;DHT22;59977;48.782;9.190;2022-08-02T00:42:07;21.50;99.90
24632;DHT22;59977;48.782;9.190;2022-08-02T00:44:33;21.40;99.90
24632;DHT22;59977;48.782;9.190;2022-08-02T00:46:59;21.30;99.90
24632;DHT22;59977;48.782;9.190;2022-08-02T00:49:25;21.20;99.90
24632;DHT22;59977;48.782;9.190;2022-08-02T00:51:51;21.20;99.90
24632;DHT22;59977;48.782;9.190;2022-08-02T00:54:16;21.10;99.90
24632;DHT22;59977;48.782;9.190;2022-08-02T00:56:42;21.20;99.90
24632;DHT22;59977;48.782;9.190;2022-08-02T00:59:07;21.30;99.90
24632;DHT22;59977;48.782;9.190;2022-08-02T01:01:33;21.30;99.90
24632;DHT22;59977;48.782;9.190;2022-08-02T01:04:08;21.30;99.90
24632;DHT22;59977;48.782;9.190;2022-08-02T01:06:35;21.40;99.90
24632;DHT22;59977;48.782;9.190;2022-08-02T01:09:01;21.50;99.90
24632;DHT22;59977;48.782;9.190;2022-08-02T01:11:30;21.50;99.90
24632;DHT22;59977;48.782;9.190;2022-08-02T01:13:59;21.40;99.90
24632;DHT22;59977;48.782;9.190;2022-08-02T01:16:31;21.30;99.90
24632;DHT22;59977;48.782;9.190;2022-08-02T01:30:25;21.20;99.90
24632;DHT22;59977;48.782;9.190;2022-08-02T01:32:54;21.30;99.90
24632;DHT22;59977;48.782;9.190;2022-08-02T01:35:34;21.40;99.90
24632;DHT22;59977;48.782;9.190;2022-08-02T01:38:15;21.30;99.90
24632;DHT22;59977;48.782;9.190;2022-08-02T01:40:44;21.40;99.90
24632;DHT22;59977;48.782;9.190;2022-08-02T01:43:12;21.50;99.90
24632;DHT22;59977;48.782;9.190;2022-08-02T01:45:40;21.50;99.90
24632;DHT22;59977;48.782;9.190;2022-08-02T01:48:07;21.50;99.90
24632;DHT22;59977;48.782;9.190;2022-08-02T01:50:35;21.40;99.90
24632;DHT22;59977;48.782;9.190;2022-08-02T01:53:06;21.30;99.90
24632;DHT22;59977;48.782;9.190;2022-08-02T01:55:38;21.30;99.90
24632;DHT22;59977;48.782;9.190;2022-08-02T01:58:06;21.40;99.90
24632;DHT22;59977;48.782;9.190;2022-08-02T02:00:35;21.40;99.90
24632;DHT22;59977;48.782;9.190;2022-08-02T02:03:05;21.40;99.90
24632;DHT22;59977;48.782;9.190;2022-08-02T02:05:31;21.30;99.90
24632;DHT22;59977;48.782;9.190;2022-08-02T02:07:59;21.30;99.90
24632;DHT22;59977;48.782;9.190;2022-08-02T02:10:31;21.20;99.90
24632;DHT22;59977;48.782;9.190;2022-08-02T02:13:04;21.20;99.90
24632;DHT22;59977;48.782;9.190;2022-08-02T02:15:31;21.30;99.90
24632;DHT22;59977;48.782;9.190;2022-08-02T02:18:00;21.30;99.90
24632;DHT22;59977;48.782;9.190;2022-08-02T02:20:26;21.20;99.90
24632;DHT22;59977;48.782;9.190;2022-08-02T02:22:53;21.20;99.90
24632;DHT22;59977;48.782;9.190;2022-08-02T02:25:20;21.10;99.90
24632;DHT22;59977;48.782;9.190;2022-08-02T02:27:54;21.00;99.90
24632;DHT22;59977;48.782;9.190;2022-08-02T02:30:22;21.00;99.90
24632;DHT22;59977;48.782;9.190;2022-08-02T02:32:52;21.00;99.90
24632;DHT22;59977;48.782;9.190;2022-08-02T02:35:21;19.90;99.90
24632;DHT22;59977;48.782;9.190;2022-08-02T02:37:48;21.10;99.90
24632;DHT22;59977;48.782;9.190;2022-08-02T02:40:16;21.10;99.90
24632;DHT22;59977;48.782;9.190;2022-08-02T02:42:43;21.10;99.90
24632;DHT22;59977;48.782;9.190;2022-08-02T02:45:10;21.10;99.90
24632;DHT22;59977;48.782;9.190;2022-08-02T02:47:37;21.20;99.90
24632;DHT22;59977;48.782;9.190;2022-08-02T02:50:03;21.20;99.90
24632;DHT22;59977;48.782;9.190;2022-08-02T02:52:30;21.20;99.90
24632;DHT22;59977;48.782;9.190;2022-08-02T02:54:57;21.20;99.90
24632;DHT22;59977;48.782;9.190;2022-08-02T02:57:23;21.20;99.90
24632;DHT22;59977;48.782;9.190;2022-08-02T02:59:49;21.30;99.90
24632;DHT22;59977;48.782;9.190;2022-08-02T03:02:17;21.30;99.90
24632;DHT22;59977;48.782;9.190;2022-08-02T03:04:43;21.30;99.90
24632;DHT22;59977;48.782;9.190;2022-08-02T03:07:09;21.30;99.90
24632;DHT22;59977;48.782;9.190;2022-08-02T03:09:35;21.30;99.90
24632;DHT22;59977;48.782;9.190;2022-08-02T03:12:01;21.40;99.90
24632;DHT22;59977;48.782;9.190;2022-08-02T03:14:28;21.50;99.90
24632;DHT22;59977;48.782;9.190;2022-08-02T03:16:54;21.50;99.90
24632;DHT22;59977;48.782;9.190;2022-08-02T03:19:21;21.50;99.90
24632;DHT22;59977;48.782;9.190;2022-08-02T03:21:49;21.30;99.90
24632;DHT22;59977;48.782;9.190;2022-08-02T03:24:15;21.10;99.90
24632;DHT22;59977;48.782;9.190;2022-08-02T03:26:41;20.90;99.90
24632;DHT22;59977;48.782;9.190;2022-08-02T03:29:07;20.90;99.90
24632;DHT22;59977;48.782;9.190;2022-08-02T03:31:33;20.80;99.90
24632;DHT22;59977;48.782;9.190;2022-08-02T03:34:00;20.80;99.90
24632;DHT22;59977;48.782;9.190;2022-08-02T03:36:29;20.90;99.90
24632;DHT22;59977;48.782;9.190;2022-08-02T03:38:56;21.00;99.90
24632;DHT22;59977;48.782;9.190;2022-08-02T03:41:22;21.10;99.90
24632;DHT22;59977;48.782;9.190;2022-08-02T03:43:49;21.10;99.90
24632;DHT22;59977;48.782;9.190;2022-08-02T03:46:18;21.10;99.90
24632;DHT22;59977;48.782;9.190;2022-08-02T03:48:45;21.10;99.90
24632;DHT22;59977;48.782;9.190;2022-08-02T03:51:12;21.10;99.90
24632;DHT22;59977;48.782;9.190;2022-08-02T03:53:39;21.10;99.90
24632;DHT22;59977;48.782;9.190;2022-08-02T03:56:05;21.10;99.90
24632;DHT22;59977;48.782;9.190;2022-08-02T03:58:31;21.10;99.90
24632;DHT22;59977;48.782;9.190;2022-08-02T04:00:57;21.10;99.90
24632;DHT22;59977;48.782;9.190;2022-08-02T04:03:23;21.20;99.90
24632;DHT22;59977;48.782;9.190;2022-08-02T04:05:49;21.20;99.90
24632;DHT22;59977;48.782;9.190;2022-08-02T04:08:14;21.30;99.90
24632;DHT22;59977;48.782;9.190;2022-08-02T04:10:40;21.30;99.90
24632;DHT22;59977;48.782;9.190;2022-08-02T04:13:31;21.30;99.90
24632;DHT22;59977;48.782;9.190;2022-08-02T04:15:58;21.30;99.90
24632;DHT22;59977;48.782;9.190;2022-08-02T04:18:29;21.20;99.90
24632;DHT22;59977;48.782;9.190;2022-08-02T04:20:55;21.20;99.90
24632;DHT22;59977;48.782;9.190;2022-08-02T04:23:24;21.30;99.90
24632;DHT22;59977;48.782;9.190;2022-08-02T04:25:50;21.30;99.90
24632;DHT22;59977;48.782;9.190;2022-08-02T04:28:17;21.30;99.90
24632;DHT22;59977;48.782;9.190;2022-08-02T04:30:44;21.10;99.90
24632;DHT22;59977;48.782;9.190;2022-08-02T04:33:11;21.00;99.90
24632;DHT22;59977;48.782;9.190;2022-08-02T04:35:36;21.00;99.90
24632;DHT22;59977;48.782;9.190;2022-08-02T04:38:03;21.00;99.90
24632;DHT22;59977;48.782;9.190;2022-08-02T04:40:29;21.00;99.90
24632;DHT22;59977;48.782;9.190;2022-08-02T04:42:54;20.90;99.90
24632;DHT22;59977;48.782;9.190;2022-08-02T04:45:20;21.00;99.90
24632;DHT22;59977;48.782;9.190;2022-08-02T04:47:46;20.80;99.90
24632;DHT22;59977;48.782;9.190;2022-08-02T04:50:12;20.80;99.90
24632;DHT22;59977;48.782;9.190;2022-08-02T04:52:38;20.80;99.90
24632;DHT22;59977;48.782;9.190;2022-08-02T04:55:03;20.70;99.90
24632;DHT22;59977;48.782;9.190;2022-08-02T04:57:29;20.70;99.90
24632;DHT22;59977;48.782;9.190;2022-08-02T05:00:14;20.90;99.90
24632;DHT22;59977;48.782;9.190;2022-08-02T05:02:39;21.10;99.90
24632;DHT22;59977;48.782;9.190;2022-08-02T05:05:05;21.20;99.90
24632;DHT22;59977;48.782;9.190;2022-08-02T05:07:31;21.40;99.90
24632;DHT22;59977;48.782;9.190;2022-08-02T05:09:57;21.20;99.90
24632;DHT22;59977;48.782;9.190;2022-08-02T05:12:22;21.10;99.90
24632;DHT22;59977;48.782;9.190;2022-08-02T05:14:48;21.20;99.90
24632;DHT22;59977;48.782;9.190;2022-08-02T05:17:14;21.20;99.90
24632;DHT22;59977;48.782;9.190;2022-08-02T05:19:40;21.30;99.90
24632;DHT22;59977;48.782;9.190;2022-08-02T05:22:06;21.30;99.90
24632;DHT22;59977;48.782;9.190;2022-08-02T05:24:31;21.50;99.90
24632;DHT22;59977;48.782;9.190;2022-08-02T05:26:57;21.70;99.90
24632;DHT22;59977;48.782;9.190;2022-08-02T05:29:22;21.90;99.90
24632;DHT22;59977;48.782;9.190;2022-08-02T05:31:48;22.00;99.90
24632;DHT22;59977;48.782;9.190;2022-08-02T05:34:14;22.00;99.90
24632;DHT22;59977;48.782;9.190;2022-08-02T05:36:40;22.10;99.90
24632;DHT22;59977;48.782;9.190;2022-08-02T05:39:06;22.10;99.90
24632;DHT22;59977;48.782;9.190;2022-08-02T05:41:31;22.20;99.90
24632;DHT22;59977;48.782;9.190;2022-08-02T05:43:57;22.20;99.90
24632;DHT22;59977;48.782;9.190;2022-08-02T05:46:23;22.20;99.90
24632;DHT22;59977;48.782;9.190;2022-08-02T05:48:48;22.30;99.90
24632;DHT22;59977;48.782;9.190;2022-08-02T05:51:25;22.30;99.90
24632;DHT22;59977;48.782;9.190;2022-08-02T05:54:08;22.40;99.90
24632;DHT22;59977;48.782;9.190;2022-08-02T05:57:00;22.40;99.90
24632;DHT22;59977;48.782;9.190;2022-08-02T06:02:08;22.60;99.90
24632;DHT22;59977;48.782;9.190;2022-08-02T06:04:53;22.70;99.90
24632;DHT22;59977;48.782;9.190;2022-08-02T06:07:21;22.60;99.90
24632;DHT22;59977;48.782;9.190;2022-08-02T06:09:48;22.70;99.90
24632;DHT22;59977;48.782;9.190;2022-08-02T06:12:16;22.50;99.90
24632;DHT22;59977;48.782;9.190;2022-08-02T06:14:42;22.40;99.90
24632;DHT22;59977;48.782;9.190;2022-08-02T06:17:08;22.30;99.90
24632;DHT22;59977;48.782;9.190;2022-08-02T06:22:09;22.50;99.90
24632;DHT22;59977;48.782;9.190;2022-08-02T06:24:44;22.60;99.90
24632;DHT22;59977;48.782;9.190;2022-08-02T06:27:13;22.60;99.90
24632;DHT22;59977;48.782;9.190;2022-08-02T06:29:42;22.70;99.90
24632;DHT22;59977;48.782;9.190;2022-08-02T06:32:09;22.80;99.90
24632;DHT22;59977;48.782;9.190;2022-08-02T06:34:40;22.90;99.90
24632;DHT22;59977;48.782;9.190;2022-08-02T06:37:26;22.90;99.90
24632;DHT22;59977;48.782;9.190;2022-08-02T06:45:35;23.00;99.90
24632;DHT22;59977;48.782;9.190;2022-08-02T06:48:01;23.10;99.90
24632;DHT22;59977;48.782;9.190;2022-08-02T06:50:29;23.30;99.90
24632;DHT22;59977;48.782;9.190;2022-08-02T06:52:54;23.10;99.90
24632;DHT22;59977;48.782;9.190;2022-08-02T06:55:20;23.10;99.90
24632;DHT22;59977;48.782;9.190;2022-08-02T06:57:46;23.30;99.90
24632;DHT22;59977;48.782;9.190;2022-08-02T07:00:11;23.20;99.90
24632;DHT22;59977;48.782;9.190;2022-08-02T07:02:38;23.00;99.90
24632;DHT22;59977;48.782;9.190;2022-08-02T07:05:07;22.70;99.90
24632;DHT22;59977;48.782;9.190;2022-08-02T07:07:33;22.90;99.90
24632;DHT22;59977;48.782;9.190;2022-08-02T07:09:59;23.10;99.90
24632;DHT22;59977;48.782;9.190;2022-08-02T07:12:25;23.30;99.90
24632;DHT22;59977;48.782;9.190;2022-08-02T07:14:51;23.50;99.90
24632;DHT22;59977;48.782;9.190;2022-08-02T07:17:17;23.50;99.90
24632;DHT22;59977;48.782;9.190;2022-08-02T07:19:43;23.40;99.90
24632;DHT22;59977;48.782;9.190;2022-08-02T07:22:09;23.50;99.90
24632;DHT22;59977;48.782;9.190;2022-08-02T07:24:34;23.80;99.90
24632;DHT22;59977;48.782;9.190;2022-08-02T07:27:00;24.10;99.90
24632;DHT22;59977;48.782;9.190;2022-08-02T07:29:26;24.30;99.90
24632;DHT22;59977;48.782;9.190;2022-08-02T07:31:52;24.50;99.90
24632;DHT22;59977;48.782;9.190;2022-08-02T07:34:18;24.70;99.90
24632;DHT22;59977;48.782;9.190;2022-08-02T07:36:43;24.90;99.90
24632;DHT22;59977;48.782;9.190;2022-08-02T07:39:09;25.00;99.90
24632;DHT22;59977;48.782;9.190;2022-08-02T07:41:34;25.20;99.90
24632;DHT22;59977;48.782;9.190;2022-08-02T07:44:00;25.20;99.90
24632;DHT22;59977;48.782;9.190;2022-08-02T07:46:26;25.30;99.90
24632;DHT22;59977;48.782;9.190;2022-08-02T07:48:52;25.20;99.90
24632;DHT22;59977;48.782;9.190;2022-08-02T07:51:19;25.20;99.90
24632;DHT22;59977;48.782;9.190;2022-08-02T07:53:45;25.00;99.90
24632;DHT22;59977;48.782;9.190;2022-08-02T07:56:11;24.90;99.90
24632;DHT22;59977;48.782;9.190;2022-08-02T07:58:37;25.00;99.90
24632;DHT22;59977;48.782;9.190;2022-08-02T08:01:02;25.10;99.90
24632;DHT22;59977;48.782;9.190;2022-08-02T08:03:28;25.10;99.90
24632;DHT22;59977;48.782;9.190;2022-08-02T08:05:54;24.60;99.90
24632;DHT22;59977;48.782;9.190;2022-08-02T08:08:20;24.40;99.90
24632;DHT22;59977;48.782;9.190;2022-08-02T08:10:46;24.40;99.90
24632;DHT22;59977;48.782;9.190;2022-08-02T08:13:12;24.70;99.90
24632;DHT22;59977;48.782;9.190;2022-08-02T08:15:38;24.90;99.90
24632;DHT22;59977;48.782;9.190;2022-08-02T08:18:04;25.00;99.90
24632;DHT22;59977;48.782;9.190;2022-08-02T08:20:30;25.10;99.90
24632;DHT22;59977;48.782;9.190;2022-08-02T08:22:55;25.10;99.90
24632;DHT22;59977;48.782;9.190;2022-08-02T08:25:21;25.20;99.90
24632;DHT22;59977;48.782;9.190;2022-08-02T08:27:48;25.30;99.90
24632;DHT22;59977;48.782;9.190;2022-08-02T08:30:14;24.90;99.90
24632;DHT22;59977;48.782;9.190;2022-08-02T08:32:40;24.70;99.90
24632;DHT22;59977;48.782;9.190;2022-08-02T08:35:05;24.90;99.90
24632;DHT22;59977;48.782;9.190;2022-08-02T08:37:35;24.80;99.90
24632;DHT22;59977;48.782;9.190;2022-08-02T08:40:01;24.80;99.90
24632;DHT22;59977;48.782;9.190;2022-08-02T08:42:29;24.80;99.90
24632;DHT22;59977;48.782;9.190;2022-08-02T08:44:55;24.80;99.90
24632;DHT22;59977;48.782;9.190;2022-08-02T08:47:22;24.80;99.90
24632;DHT22;59977;48.782;9.190;2022-08-02T08:49:50;24.80;99.90
24632;DHT22;59977;48.782;9.190;2022-08-02T08:52:17;25.00;99.90
24632;DHT22;59977;48.782;9.190;2022-08-02T08:54:46;25.00;99.90
24632;DHT22;59977;48.782;9.190;2022-08-02T08:57:12;24.90;99.90
24632;DHT22;59977;48.782;9.190;2022-08-02T08:59:39;24.80;99.90
24632;DHT22;59977;48.782;9.190;2022-08-02T09:02:05;24.70;99.90
24632;DHT22;59977;48.782;9.190;2022-08-02T09:04:31;24.80;99.90
24632;DHT22;59977;48.782;9.190;2022-08-02T09:06:56;24.60;99.90
24632;DHT22;59977;48.782;9.190;2022-08-02T09:09:22;24.30;99.90
24632;DHT22;59977;48.782;9.190;2022-08-02T09:11:48;24.60;99.90
24632;DHT22;59977;48.782;9.190;2022-08-02T09:14:26;25.00;99.90
24632;DHT22;59977;48.782;9.190;2022-08-02T09:16:52;24.70;99.90
24632;DHT22;59977;48.782;9.190;2022-08-02T09:21:44;25.70;99.90
24632;DHT22;59977;48.782;9.190;2022-08-02T09:24:21;25.90;99.90
24632;DHT22;59977;48.782;9.190;2022-08-02T09:26:48;25.80;99.90
24632;DHT22;59977;48.782;9.190;2022-08-02T09:29:14;25.80;99.90
24632;DHT22;59977;48.782;9.190;2022-08-02T09:31:41;25.70;99.90
24632;DHT22;59977;48.782;9.190;2022-08-02T09:34:07;25.90;99.90
24632;DHT22;59977;48.782;9.190;2022-08-02T09:36:41;25.70;99.90
24632;DHT22;59977;48.782;9.190;2022-08-02T09:39:11;25.60;99.90
24632;DHT22;59977;48.782;9.190;2022-08-02T09:41:40;26.00;99.90
24632;DHT22;59977;48.782;9.190;2022-08-02T09:44:08;26.20;99.90
24632;DHT22;59977;48.782;9.190;2022-08-02T09:46:37;25.90;99.90
24632;DHT22;59977;48.782;9.190;2022-08-02T09:49:11;25.90;99.90
24632;DHT22;59977;48.782;9.190;2022-08-02T09:54:31;25.60;99.90
24632;DHT22;59977;48.782;9.190;2022-08-02T09:56:59;26.00;99.90
24632;DHT22;59977;48.782;9.190;2022-08-02T09:59:25;26.30;99.90
24632;DHT22;59977;48.782;9.190;2022-08-02T10:01:53;26.60;99.90
24632;DHT22;59977;48.782;9.190;2022-08-02T10:04:21;26.80;99.90
24632;DHT22;59977;48.782;9.190;2022-08-02T10:06:48;27.10;99.90
24632;DHT22;59977;48.782;9.190;2022-08-02T10:09:13;27.00;99.90
24632;DHT22;59977;48.782;9.190;2022-08-02T10:11:39;26.90;99.90
24632;DHT22;59977;48.782;9.190;2022-08-02T10:14:08;26.60;99.90
24632;DHT22;59977;48.782;9.190;2022-08-02T10:16:39;26.30;99.90
24632;DHT22;59977;48.782;9.190;2022-08-02T10:19:06;26.40;99.90
24632;DHT22;59977;48.782;9.190;2022-08-02T10:21:51;26.30;99.90
24632;DHT22;59977;48.782;9.190;2022-08-02T10:24:21;26.60;99.90
24632;DHT22;59977;48.782;9.190;2022-08-02T10:26:48;26.80;99.30
24632;DHT22;59977;48.782;9.190;2022-08-02T10:29:18;26.70;99.50
24632;DHT22;59977;48.782;9.190;2022-08-02T10:31:55;26.80;99.60
24632;DHT22;59977;48.782;9.190;2022-08-02T10:34:44;27.00;99.30
24632;DHT22;59977;48.782;9.190;2022-08-02T10:37:12;27.30;98.90
24632;DHT22;59977;48.782;9.190;2022-08-02T10:39:39;27.10;98.90
24632;DHT22;59977;48.782;9.190;2022-08-02T10:42:05;27.40;98.10
24632;DHT22;59977;48.782;9.190;2022-08-02T10:44:32;27.40;97.50
24632;DHT22;59977;48.782;9.190;2022-08-02T10:47:20;27.10;97.90
24632;DHT22;59977;48.782;9.190;2022-08-02T10:49:53;27.00;98.20
24632;DHT22;59977;48.782;9.190;2022-08-02T10:52:26;26.90;97.80
24632;DHT22;59977;48.782;9.190;2022-08-02T10:54:59;26.90;98.00
24632;DHT22;59977;48.782;9.190;2022-08-02T10:57:28;27.00;98.10
24632;DHT22;59977;48.782;9.190;2022-08-02T11:00:40;27.00;97.50
24632;DHT22;59977;48.782;9.190;2022-08-02T11:02:43;27.20;97.50
24632;DHT22;59977;48.782;9.190;2022-08-02T11:05:15;27.30;96.60
24632;DHT22;59977;48.782;9.190;2022-08-02T11:07:47;27.00;96.80
24632;DHT22;59977;48.782;9.190;2022-08-02T11:13:14;27.10;96.20
24632;DHT22;59977;48.782;9.190;2022-08-02T11:18:18;26.50;96.20
24632;DHT22;59977;48.782;9.190;2022-08-02T11:20:45;25.50;95.90
24632;DHT22;59977;48.782;9.190;2022-08-02T11:23:38;26.50;96.20
24632;DHT22;59977;48.782;9.190;2022-08-02T11:28:57;27.10;94.70
24632;DHT22;59977;48.782;9.190;2022-08-02T11:31:23;26.90;94.50
24632;DHT22;59977;48.782;9.190;2022-08-02T11:33:50;27.10;93.40
24632;DHT22;59977;48.782;9.190;2022-08-02T11:36:16;27.00;93.70
24632;DHT22;59977;48.782;9.190;2022-08-02T11:38:42;27.10;93.40
24632;DHT22;59977;48.782;9.190;2022-08-02T11:41:08;27.10;93.60
24632;DHT22;59977;48.782;9.190;2022-08-02T11:43:34;27.30;93.30
24632;DHT22;59977;48.782;9.190;2022-08-02T11:46:04;27.40;92.90
24632;DHT22;59977;48.782;9.190;2022-08-02T11:48:38;27.50;93.10
24632;DHT22;59977;48.782;9.190;2022-08-02T11:53:50;27.50;92.10
24632;DHT22;59977;48.782;9.190;2022-08-02T11:56:27;27.00;92.00
24632;DHT22;59977;48.782;9.190;2022-08-02T11:59:07;27.20;92.70
24632;DHT22;59977;48.782;9.190;2022-08-02T12:01:35;27.30;92.80
24632;DHT22;59977;48.782;9.190;2022-08-02T12:04:02;27.60;91.80
24632;DHT22;59977;48.782;9.190;2022-08-02T12:06:29;27.30;91.90
24632;DHT22;59977;48.782;9.190;2022-08-02T12:09:04;27.10;92.40
24632;DHT22;59977;48.782;9.190;2022-08-02T12:11:31;27.40;92.30
24632;DHT22;59977;48.782;9.190;2022-08-02T12:13:56;27.50;91.70
24632;DHT22;59977;48.782;9.190;2022-08-02T12:16:23;27.50;92.00
24632;DHT22;59977;48.782;9.190;2022-08-02T12:19:07;27.70;91.50
24632;DHT22;59977;48.782;9.190;2022-08-02T12:22:10;27.90;90.80
24632;DHT22;59977;48.782;9.190;2022-08-02T12:24:34;28.10;90.40
24632;DHT22;59977;48.782;9.190;2022-08-02T12:27:00;28.30;90.10
24632;DHT22;59977;48.782;9.190;2022-08-02T12:29:37;28.50;88.20
24632;DHT22;59977;48.782;9.190;2022-08-02T12:32:04;28.60;87.70
24632;DHT22;59977;48.782;9.190;2022-08-02T12:34:32;28.40;87.40
24632;DHT22;59977;48.782;9.190;2022-08-02T12:37:09;28.20;88.50
24632;DHT22;59977;48.782;9.190;2022-08-02T12:39:44;28.20;88.20
24632;DHT22;59977;48.782;9.190;2022-08-02T12:42:12;28.00;87.30
24632;DHT22;59977;48.782;9.190;2022-08-02T12:44:51;28.10;87.60
24632;DHT22;59977;48.782;9.190;2022-08-02T12:47:17;28.30;86.70
24632;DHT22;59977;48.782;9.190;2022-08-02T12:49:46;28.70;85.60
24632;DHT22;59977;48.782;9.190;2022-08-02T12:52:38;29.10;83.40
24632;DHT22;59977;48.782;9.190;2022-08-02T12:57:59;29.80;78.90
24632;DHT22;59977;48.782;9.190;2022-08-02T13:00:34;29.50;77.40
24632;DHT22;59977;48.782;9.190;2022-08-02T13:03:00;29.40;78.00
24632;DHT22;59977;48.782;9.190;2022-08-02T13:05:27;29.50;77.50
24632;DHT22;59977;48.782;9.190;2022-08-02T13:07:54;29.10;77.70
24632;DHT22;59977;48.782;9.190;2022-08-02T13:10:21;29.10;77.20
24632;DHT22;59977;48.782;9.190;2022-08-02T13:12:47;29.10;77.70
24632;DHT22;59977;48.782;9.190;2022-08-02T13:15:13;29.80;76.00
24632;DHT22;59977;48.782;9.190;2022-08-02T13:17:39;29.90;75.10
24632;DHT22;59977;48.782;9.190;2022-08-02T13:20:06;29.60;74.10
24632;DHT22;59977;48.782;9.190;2022-08-02T13:22:32;29.80;74.80
24632;DHT22;59977;48.782;9.190;2022-08-02T13:24:58;30.40;72.80
24632;DHT22;59977;48.782;9.190;2022-08-02T13:27:24;29.90;71.20
24632;DHT22;59977;48.782;9.190;2022-08-02T13:29:51;29.90;71.50
24632;DHT22;59977;48.782;9.190;2022-08-02T13:32:18;30.20;69.40
24632;DHT22;59977;48.782;9.190;2022-08-02T13:34:44;30.40;68.80
24632;DHT22;59977;48.782;9.190;2022-08-02T13:37:10;31.10;67.50
24632;DHT22;59977;48.782;9.190;2022-08-02T13:39:35;31.70;65.30
24632;DHT22;59977;48.782;9.190;2022-08-02T13:42:01;32.30;61.40
24632;DHT22;59977;48.782;9.190;2022-08-02T13:44:26;31.90;61.70
24632;DHT22;59977;48.782;9.190;2022-08-02T13:46:52;32.50;59.50
24632;DHT22;59977;48.782;9.190;2022-08-02T13:49:18;32.90;58.50
24632;DHT22;59977;48.782;9.190;2022-08-02T13:51:44;33.20;57.00
24632;DHT22;59977;48.782;9.190;2022-08-02T13:54:10;32.60;57.50
24632;DHT22;59977;48.782;9.190;2022-08-02T13:56:35;32.30;57.80
24632;DHT22;59977;48.782;9.190;2022-08-02T13:59:02;32.70;56.90
24632;DHT22;59977;48.782;9.190;2022-08-02T14:01:28;33.00;56.60
24632;DHT22;59977;48.782;9.190;2022-08-02T14:03:54;33.10;55.90
24632;DHT22;59977;48.782;9.190;2022-08-02T14:06:20;33.10;56.50
24632;DHT22;59977;48.782;9.190;2022-08-02T14:08:46;34.30;55.20
24632;DHT22;59977;48.782;9.190;2022-08-02T14:11:12;34.90;53.80
24632;DHT22;59977;48.782;9.190;2022-08-02T14:13:38;33.30;53.60
24632;DHT22;59977;48.782;9.190;2022-08-02T14:16:04;33.80;55.10
24632;DHT22;59977;48.782;9.190;2022-08-02T14:18:30;34.40;54.10
24632;DHT22;59977;48.782;9.190;2022-08-02T14:20:55;33.50;54.50
24632;DHT22;59977;48.782;9.190;2022-08-02T14:23:21;32.80;55.90
24632;DHT22;59977;48.782;9.190;2022-08-02T14:25:47;32.80;55.90
24632;DHT22;59977;48.782;9.190;2022-08-02T14:28:13;32.40;56.40
24632;DHT22;59977;48.782;9.190;2022-08-02T14:30:38;32.00;56.30
24632;DHT22;59977;48.782;9.190;2022-08-02T14:33:04;31.80;56.90
24632;DHT22;59977;48.782;9.190;2022-08-02T14:35:30;31.90;57.10
24632;DHT22;59977;48.782;9.190;2022-08-02T14:37:56;32.20;56.60
24632;DHT22;59977;48.782;9.190;2022-08-02T14:40:22;33.40;54.90
24632;DHT22;59977;48.782;9.190;2022-08-02T14:42:48;33.40;54.60
24632;DHT22;59977;48.782;9.190;2022-08-02T14:45:16;33.10;55.00
24632;DHT22;59977;48.782;9.190;2022-08-02T14:47:43;33.50;55.40
24632;DHT22;59977;48.782;9.190;2022-08-02T14:50:09;34.20;53.70
24632;DHT22;59977;48.782;9.190;2022-08-02T14:52:35;34.40;53.10
24632;DHT22;59977;48.782;9.190;2022-08-02T14:55:02;34.60;52.60
24632;DHT22;59977;48.782;9.190;2022-08-02T14:57:30;35.10;51.40
24632;DHT22;59977;48.782;9.190;2022-08-02T14:59:56;36.10;49.30
24632;DHT22;59977;48.782;9.190;2022-08-02T15:02:25;35.90;48.30
24632;DHT22;59977;48.782;9.190;2022-08-02T15:04:51;35.70;48.20
24632;DHT22;59977;48.782;9.190;2022-08-02T15:07:16;35.10;48.50
24632;DHT22;59977;48.782;9.190;2022-08-02T15:09:42;34.30;49.60
24632;DHT22;59977;48.782;9.190;2022-08-02T15:12:09;33.70;50.30
24632;DHT22;59977;48.782;9.190;2022-08-02T15:14:35;32.70;51.40
24632;DHT22;59977;48.782;9.190;2022-08-02T15:17:00;32.80;51.60
24632;DHT22;59977;48.782;9.190;2022-08-02T15:19:26;33.10;51.10
24632;DHT22;59977;48.782;9.190;2022-08-02T15:21:52;33.00;51.80
24632;DHT22;59977;48.782;9.190;2022-08-02T15:24:18;32.40;52.80
24632;DHT22;59977;48.782;9.190;2022-08-02T15:26:43;32.90;51.60
24632;DHT22;59977;48.782;9.190;2022-08-02T15:29:09;33.70;51.00
24632;DHT22;59977;48.782;9.190;2022-08-02T15:31:35;35.20;49.40
24632;DHT22;59977;48.782;9.190;2022-08-02T15:34:00;36.80;47.10
24632;DHT22;59977;48.782;9.190;2022-08-02T15:36:26;37.60;45.60
24632;DHT22;59977;48.782;9.190;2022-08-02T15:38:51;38.40;44.00
24632;DHT22;59977;48.782;9.190;2022-08-02T15:41:17;39.00;42.80
24632;DHT22;59977;48.782;9.190;2022-08-02T15:43:43;38.90;42.60
24632;DHT22;59977;48.782;9.190;2022-08-02T15:46:08;38.40;43.10
24632;DHT22;59977;48.782;9.190;2022-08-02T15:48:34;37.90;43.30
24632;DHT22;59977;48.782;9.190;2022-08-02T15:51:00;36.40;44.70
24632;DHT22;59977;48.782;9.190;2022-08-02T15:53:26;37.50;43.90
24632;DHT22;59977;48.782;9.190;2022-08-02T15:55:51;38.00;42.40
24632;DHT22;59977;48.782;9.190;2022-08-02T15:58:18;36.30;43.70
24632;DHT22;59977;48.782;9.190;2022-08-02T16:00:44;36.00;44.80
24632;DHT22;59977;48.782;9.190;2022-08-02T16:03:10;37.20;43.90
24632;DHT22;59977;48.782;9.190;2022-08-02T16:05:35;38.20;42.50
24632;DHT22;59977;48.782;9.190;2022-08-02T16:08:01;39.30;41.50
24632;DHT22;59977;48.782;9.190;2022-08-02T16:10:27;40.20;40.60
24632;DHT22;59977;48.782;9.190;2022-08-02T16:12:52;40.70;39.50
24632;DHT22;59977;48.782;9.190;2022-08-02T16:15:38;41.10;38.50